Time;durP1;ratioP1;P1;durP2;ratioP2;P2;SDS_P1;SDS_P2;PMS_P1;PMS_P2;Temp;Humidity;BMP_temperature;BMP_pressure;BME280_temperature;BME280_humidity;BME280_pressure;Samples;Min_cycle;Max_cycle;Signal;HPM_P1;HPM_P2
2021/12/02 00:02:06;;;;;;;;;;;;;;;;;;5096978;28;20370;-63
2021/12/02 00:04:33;;;;;;;;;;;;;;;;;;5115316;28;19904;-72
2021/12/02 00:06:59;;;;;;;;;;;;;;;;;;5115047;28;20259;-64
2021/12/02 00:09:25;;;;;;;;;;;;;;;;;;5115180;28;20440;-68
2021/12/02 00:11:51;;;;;;;;;;;;;;;;;;5115189;28;19950;-63
2021/12/02 00:14:23;;;;;;;;;;;;;;;;;;5113983;28;19908;-66
2021/12/02 00:22:09;;;;;;;;;;;;;;;;;;5115299;28;19943;-64
2021/12/02 00:24:35;;;;;;;;;;;;;;;;;;5096435;28;19904;-74
2021/12/02 00:27:01;;;;;;;;;;;;;;;;;;5114704;28;19954;-72
2021/12/02 00:29:27;;;;;;;;;;;;;;;;;;5114637;28;19903;-75
2021/12/02 00:31:53;;;;;;;;;;;;;;;;;;5114016;28;19904;-74
2021/12/02 00:34:19;;;;;;;;;;;;;;;;;;5114549;28;19912;-73
2021/12/02 00:36:45;;;;;;;;;;;;;;;;;;5114519;28;19911;-74
2021/12/02 00:39:11;;;;;;;;;;;;;;;;;;5114606;28;19904;-73
2021/12/02 00:41:37;;;;;;;;;;;;;;;;;;5114556;28;19904;-71
2021/12/02 00:44:03;;;;;;;;;;;;;;;;;;5114538;28;19914;-67
2021/12/02 00:46:33;;;;;;;;;;;;;;;;;;5097966;28;19916;-73
2021/12/02 00:49:02;;;;;;;;;;;;;;;;;;5111077;28;20271;-72
2021/12/02 00:51:27;;;;;;;;;;;;;;;;;;5113536;28;19911;-75
2021/12/02 00:53:53;;;;;;;;;;;;;;;;;;5114017;28;19908;-69
2021/12/02 00:56:19;;;;;;;;;;;;;;;;;;5114020;28;19907;-68
2021/12/02 00:58:45;;;;;;;;;;;;;;;;;;5114283;28;19904;-69
2021/12/02 01:01:11;;;;;;;;;;;;;;;;;;5095438;28;19957;-69
2021/12/02 01:03:37;;;;;;;;;;;;;;;;;;5075524;28;20348;-74
2021/12/02 01:06:04;;;;;;;;;;;;;;;;;;5094112;28;19929;-71
2021/12/02 01:08:29;;;;;;;;;;;;;;;;;;5093569;28;20391;-70
2021/12/02 01:10:55;;;;;;;;;;;;;;;;;;5093531;28;19911;-70
2021/12/02 01:13:21;;;;;;;;;;;;;;;;;;5093689;28;19911;-62
2021/12/02 01:15:47;;;;;;;;;;;;;;;;;;5093355;28;19919;-70
2021/12/02 01:18:13;;;;;;;;;;;;;;;;;;5093484;28;20366;-73
2021/12/02 01:20:39;;;;;;;;;;;;;;;;;;5093400;28;19904;-72
2021/12/02 01:23:05;;;;;;;;;;;;;;;;;;5093751;28;19977;-74
2021/12/02 01:25:31;;;;;;;;;;;;;;;;;;5074991;28;20025;-74
2021/12/02 01:27:57;;;;;;;;;;;;;;;;;;5093296;28;19999;-72
2021/12/02 01:30:23;;;;;;;;;;;;;;;;;;5093458;28;20002;-73
2021/12/02 01:32:49;;;;;;;;;;;;;;;;;;5093165;28;19904;-71
2021/12/02 01:35:15;;;;;;;;;;;;;;;;;;5074863;28;19912;-74
2021/12/02 01:37:41;;;;;;;;;;;;;;;;;;5092997;28;19927;-73
2021/12/02 01:40:06;;;;;;;;;;;;;;;;;;5093563;28;19961;-72
2021/12/02 01:42:34;;;;;;;;;;;;;;;;;;5092981;28;19907;-67
2021/12/02 01:45:00;;;;;;;;;;;;;;;;;;5092896;28;19904;-72
2021/12/02 01:47:26;;;;;;;;;;;;;;;;;;5092879;28;19922;-74
2021/12/02 01:49:52;;;;;;;;;;;;;;;;;;5074764;28;19911;-71
2021/12/02 01:52:18;;;;;;;;;;;;;;;;;;5093037;28;19912;-74
2021/12/02 01:54:44;;;;;;;;;;;;;;;;;;5092651;28;19915;-73
2021/12/02 01:57:10;;;;;;;;;;;;;;;;;;5075301;28;19952;-73
2021/12/02 01:59:36;;;;;;;;;;;;;;;;;;5097697;28;19911;-74
2021/12/02 02:02:02;;;;;;;;;;;;;;;;;;5112980;28;20400;-70
2021/12/02 02:04:28;;;;;;;;;;;;;;;;;;5094840;28;19903;-73
2021/12/02 02:06:54;;;;;;;;;;;;;;;;;;5112928;28;19899;-71
2021/12/02 02:09:20;;;;;;;;;;;;;;;;;;5096740;28;19904;-73
2021/12/02 02:11:46;;;;;;;;;;;;;;;;;;5092604;28;19904;-72
2021/12/02 02:14:11;;;;;;;;;;;;;;;;;;5092805;28;19947;-73
2021/12/02 02:16:39;;;;;;;;;;;;;;;;;;5092423;28;19991;-70
2021/12/02 02:19:04;;;;;;;;;;;;;;;;;;5092821;28;19911;-64
2021/12/02 02:21:34;;;;;;;;;;;;;;;;;;5092714;28;19903;-69
2021/12/02 02:24:00;;;;;;;;;;;;;;;;;;5092529;28;19904;-73
2021/12/02 02:26:28;;;;;;;;;;;;;;;;;;5092293;28;19950;-68
2021/12/02 02:28:54;;;;;;;;;;;;;;;;;;5092542;28;19908;-70
2021/12/02 02:31:20;;;;;;;;;;;;;;;;;;5092683;28;19911;-68
2021/12/02 02:33:49;;;;;;;;;;;;;;;;;;5092040;28;19904;-65
2021/12/02 02:36:15;;;;;;;;;;;;;;;;;;5074221;28;19960;-74
2021/12/02 02:38:41;;;;;;;;;;;;;;;;;;5074481;28;19904;-71
2021/12/02 02:41:09;;;;;;;;;;;;;;;;;;5092553;28;19904;-68
2021/12/02 02:43:35;;;;;;;;;;;;;;;;;;5074164;28;20032;-74
2021/12/02 02:46:01;;;;;;;;;;;;;;;;;;5103096;28;20028;-62
2021/12/02 02:48:27;;;;;;;;;;;;;;;;;;5091925;28;19904;-63
2021/12/02 02:50:53;;;;;;;;;;;;;;;;;;5100314;28;19907;-62
2021/12/02 02:53:21;;;;;;;;;;;;;;;;;;5094945;28;19908;-64
2021/12/02 03:01:03;;;;;;;;;;;;;;;;;;5092102;28;19999;-66
2021/12/02 03:08:35;;;;;;;;;;;;;;;;;;5096856;28;19907;-66
2021/12/02 03:11:01;;;;;;;;;;;;;;;;;;5094915;28;19903;-70
2021/12/02 03:18:56;;;;;;;;;;;;;;;;;;5096394;28;20034;-63
2021/12/02 03:21:22;;;;;;;;;;;;;;;;;;5095882;28;19947;-67
2021/12/02 03:23:48;;;;;;;;;;;;;;;;;;5095709;28;19940;-66
2021/12/02 03:26:14;;;;;;;;;;;;;;;;;;5095699;28;19911;-65
2021/12/02 03:28:40;;;;;;;;;;;;;;;;;;5095822;28;19911;-65
2021/12/02 03:31:06;;;;;;;;;;;;;;;;;;5077648;28;19904;-73
2021/12/02 03:33:31;;;;;;;;;;;;;;;;;;5098405;28;20239;-69
2021/12/02 03:35:57;;;;;;;;;;;;;;;;;;5115446;28;20392;-69
2021/12/02 03:38:23;;;;;;;;;;;;;;;;;;5097187;28;19911;-70
2021/12/02 03:40:49;;;;;;;;;;;;;;;;;;5115619;28;19904;-66
2021/12/02 03:43:15;;;;;;;;;;;;;;;;;;5115791;28;19903;-63
2021/12/02 03:45:41;;;;;;;;;;;;;;;;;;5115465;28;19904;-69
2021/12/02 03:48:07;;;;;;;;;;;;;;;;;;5115812;28;19965;-63
2021/12/02 03:50:33;;;;;;;;;;;;;;;;;;5115212;28;19903;-63
2021/12/02 03:52:59;;;;;;;;;;;;;;;;;;5115163;28;19904;-62
2021/12/02 03:55:25;;;;;;;;;;;;;;;;;;5114945;28;20346;-62
2021/12/02 03:57:51;;;;;;;;;;;;;;;;;;5115028;28;19910;-62
2021/12/02 04:00:17;;;;;;;;;;;;;;;;;;5114941;28;19910;-62
2021/12/02 04:02:42;;;;;;;;;;;;;;;;;;5096616;28;19903;-66
2021/12/02 04:05:08;;;;;;;;;;;;;;;;;;5115083;28;19908;-63
2021/12/02 04:07:34;;;;;;;;;;;;;;;;;;5114888;28;19903;-65
2021/12/02 04:10:01;;;;;;;;;;;;;;;;;;5114698;28;19923;-63
2021/12/02 04:15:04;;;;;;;;;;;;;;;;;;5115265;28;20248;-63
2021/12/02 04:17:43;;;;;;;;;;;;;;;;;;5114920;28;19904;-63
2021/12/02 04:20:09;;;;;;;;;;;;;;;;;;5096412;28;19904;-63
2021/12/02 04:22:34;;;;;;;;;;;;;;;;;;5114843;28;19944;-63
2021/12/02 04:25:00;;;;;;;;;;;;;;;;;;5114245;28;19908;-64
2021/12/02 04:27:26;;;;;;;;;;;;;;;;;;5113837;28;19903;-68
2021/12/02 04:29:52;;;;;;;;;;;;;;;;;;5114583;28;20374;-65
2021/12/02 04:32:18;;;;;;;;;;;;;;;;;;5114378;28;19905;-63
2021/12/02 04:34:44;;;;;;;;;;;;;;;;;;5114177;28;19914;-69
2021/12/02 04:37:10;;;;;;;;;;;;;;;;;;5114074;28;19910;-69
2021/12/02 04:39:36;;;;;;;;;;;;;;;;;;5114179;28;20278;-63
2021/12/02 04:42:02;;;;;;;;;;;;;;;;;;5114214;28;19903;-63
2021/12/02 04:44:28;;;;;;;;;;;;;;;;;;5114146;28;19910;-63
2021/12/02 04:46:54;;;;;;;;;;;;;;;;;;5113972;28;19942;-63
2021/12/02 04:49:20;;;;;;;;;;;;;;;;;;5114437;28;19904;-63
2021/12/02 04:51:46;;;;;;;;;;;;;;;;;;5091606;28;19908;-63
2021/12/02 04:54:11;;;;;;;;;;;;;;;;;;5075200;28;19912;-67
2021/12/02 04:56:37;;;;;;;;;;;;;;;;;;5093558;28;19995;-67
2021/12/02 04:59:03;;;;;;;;;;;;;;;;;;5093374;28;19947;-69
2021/12/02 05:01:29;;;;;;;;;;;;;;;;;;5093151;28;19923;-68
2021/12/02 05:03:55;;;;;;;;;;;;;;;;;;5075549;28;19923;-65
2021/12/02 05:06:21;;;;;;;;;;;;;;;;;;5093147;28;19911;-67
2021/12/02 05:08:47;;;;;;;;;;;;;;;;;;5093127;28;19900;-65
2021/12/02 05:11:13;;;;;;;;;;;;;;;;;;5093252;28;19905;-65
2021/12/02 05:13:39;;;;;;;;;;;;;;;;;;5092937;28;19904;-67
2021/12/02 05:16:05;;;;;;;;;;;;;;;;;;5093212;28;19951;-64
2021/12/02 05:18:31;;;;;;;;;;;;;;;;;;5093791;28;19955;-65
2021/12/02 05:20:57;;;;;;;;;;;;;;;;;;5093569;28;19961;-67
2021/12/02 05:23:23;;;;;;;;;;;;;;;;;;5093320;28;19911;-63
2021/12/02 05:25:49;;;;;;;;;;;;;;;;;;5093519;28;19904;-63
2021/12/02 05:28:15;;;;;;;;;;;;;;;;;;5093527;28;20151;-65
2021/12/02 05:30:41;;;;;;;;;;;;;;;;;;5093408;28;19904;-68
2021/12/02 05:33:07;;;;;;;;;;;;;;;;;;5075274;28;20405;-66
2021/12/02 05:35:33;;;;;;;;;;;;;;;;;;5092938;28;19916;-65
2021/12/02 05:37:59;;;;;;;;;;;;;;;;;;5092889;28;19904;-65
2021/12/02 05:40:25;;;;;;;;;;;;;;;;;;5093120;28;19908;-65
2021/12/02 05:42:51;;;;;;;;;;;;;;;;;;5093219;28;19904;-65
2021/12/02 05:45:17;;;;;;;;;;;;;;;;;;5093091;28;19949;-66
2021/12/02 05:47:43;;;;;;;;;;;;;;;;;;5093097;28;19916;-65
2021/12/02 05:50:08;;;;;;;;;;;;;;;;;;5093250;28;19904;-68
2021/12/02 05:52:34;;;;;;;;;;;;;;;;;;5093190;28;20347;-69
2021/12/02 05:55:00;;;;;;;;;;;;;;;;;;5092840;28;19912;-62
2021/12/02 05:57:26;;;;;;;;;;;;;;;;;;5092721;28;19908;-65
2021/12/02 05:59:52;;;;;;;;;;;;;;;;;;5092796;28;19907;-65
2021/12/02 06:02:19;;;;;;;;;;;;;;;;;;5092965;28;19966;-64
2021/12/02 06:04:49;;;;;;;;;;;;;;;;;;5092846;28;19904;-66
2021/12/02 06:07:15;;;;;;;;;;;;;;;;;;5092644;28;19900;-68
2021/12/02 06:09:41;;;;;;;;;;;;;;;;;;5073957;28;20002;-66
2021/12/02 06:12:07;;;;;;;;;;;;;;;;;;5092077;28;19904;-65
2021/12/02 06:14:33;;;;;;;;;;;;;;;;;;5096044;28;19916;-67
2021/12/02 06:16:59;;;;;;;;;;;;;;;;;;5092009;28;20397;-67
2021/12/02 06:19:25;;;;;;;;;;;;;;;;;;5074162;28;20578;-69
2021/12/02 06:21:51;;;;;;;;;;;;;;;;;;5091956;28;19919;-71
2021/12/02 06:24:17;;;;;;;;;;;;;;;;;;5092070;28;19953;-68
2021/12/02 06:26:43;;;;;;;;;;;;;;;;;;5073838;28;20339;-69
2021/12/02 06:29:09;;;;;;;;;;;;;;;;;;5092002;28;19904;-67
2021/12/02 06:31:35;;;;;;;;;;;;;;;;;;5091786;28;19908;-69
2021/12/02 06:34:02;;;;;;;;;;;;;;;;;;5091925;28;19907;-68
2021/12/02 06:36:27;;;;;;;;;;;;;;;;;;5091974;28;19962;-64
2021/12/02 06:38:53;;;;;;;;;;;;;;;;;;5096751;28;19912;-65
2021/12/02 06:41:19;;;;;;;;;;;;;;;;;;5112482;28;20362;-65
2021/12/02 06:43:46;;;;;;;;;;;;;;;;;;5104539;28;19904;-61
2021/12/02 06:46:12;;;;;;;;;;;;;;;;;;5091779;28;19969;-62
2021/12/02 06:48:38;;;;;;;;;;;;;;;;;;5074149;28;20006;-64
2021/12/02 06:51:04;;;;;;;;;;;;;;;;;;5096132;28;19943;-62
2021/12/02 06:53:30;;;;;;;;;;;;;;;;;;5095938;28;19999;-63
2021/12/02 06:55:55;;;;;;;;;;;;;;;;;;5085107;28;19912;-64
2021/12/02 06:58:21;;;;;;;;;;;;;;;;;;5116099;28;19903;-63
2021/12/02 07:00:47;;;;;;;;;;;;;;;;;;5097675;28;19903;-68
2021/12/02 07:03:13;;;;;;;;;;;;;;;;;;5116051;28;19957;-63
2021/12/02 07:05:40;;;;;;;;;;;;;;;;;;5096993;28;19936;-66
2021/12/02 07:08:06;;;;;;;;;;;;;;;;;;5096023;28;20370;-62
2021/12/02 07:10:33;;;;;;;;;;;;;;;;;;5095967;28;19912;-62
2021/12/02 07:13:00;;;;;;;;;;;;;;;;;;5095734;28;19904;-64
2021/12/02 07:15:29;;;;;;;;;;;;;;;;;;5095604;28;19911;-65
2021/12/02 07:17:56;;;;;;;;;;;;;;;;;;5095767;28;19915;-66
2021/12/02 07:20:22;;;;;;;;;;;;;;;;;;5095880;28;19900;-62
2021/12/02 07:22:48;;;;;;;;;;;;;;;;;;5095513;28;19904;-67
2021/12/02 07:25:14;;;;;;;;;;;;;;;;;;5095393;28;19991;-63
2021/12/02 07:27:41;;;;;;;;;;;;;;;;;;5094929;28;20327;-63
2021/12/02 07:30:07;;;;;;;;;;;;;;;;;;5076588;28;19900;-62
2021/12/02 07:32:33;;;;;;;;;;;;;;;;;;5103357;28;20426;-66
2021/12/02 07:34:59;;;;;;;;;;;;;;;;;;5115156;28;19911;-65
2021/12/02 07:37:25;;;;;;;;;;;;;;;;;;5109938;28;19904;-64
2021/12/02 07:39:51;;;;;;;;;;;;;;;;;;5095522;28;19904;-63
2021/12/02 07:42:17;;;;;;;;;;;;;;;;;;5095261;28;19987;-64
2021/12/02 07:44:43;;;;;;;;;;;;;;;;;;5095367;28;20430;-67
2021/12/02 07:47:09;;;;;;;;;;;;;;;;;;5095349;28;19962;-67
2021/12/02 07:49:35;;;;;;;;;;;;;;;;;;5095453;28;19947;-65
2021/12/02 07:52:01;;;;;;;;;;;;;;;;;;5095254;28;19943;-65
2021/12/02 07:54:27;;;;;;;;;;;;;;;;;;5098825;28;19915;-64
2021/12/02 07:56:53;;;;;;;;;;;;;;;;;;5115072;28;19922;-67
2021/12/02 07:59:19;;;;;;;;;;;;;;;;;;5115079;28;19904;-64
2021/12/02 08:01:45;;;;;;;;;;;;;;;;;;5115052;28;20335;-69
2021/12/02 08:04:11;;;;;;;;;;;;;;;;;;5115316;28;19903;-64
2021/12/02 08:06:37;;;;;;;;;;;;;;;;;;5115625;28;19903;-66
2021/12/02 08:09:03;;;;;;;;;;;;;;;;;;5115480;28;19903;-66
2021/12/02 08:11:29;;;;;;;;;;;;;;;;;;5115285;28;19970;-68
2021/12/02 08:13:57;;;;;;;;;;;;;;;;;;5114793;28;20260;-72
2021/12/02 08:16:22;;;;;;;;;;;;;;;;;;5114761;28;19907;-67
2021/12/02 08:18:48;;;;;;;;;;;;;;;;;;5114819;28;19903;-67
2021/12/02 08:21:14;;;;;;;;;;;;;;;;;;5114766;28;19908;-69
2021/12/02 08:23:40;;;;;;;;;;;;;;;;;;5114534;28;19919;-63
2021/12/02 08:26:06;;;;;;;;;;;;;;;;;;5114623;28;19904;-63
2021/12/02 08:28:32;;;;;;;;;;;;;;;;;;5114604;28;20457;-70
2021/12/02 08:30:58;;;;;;;;;;;;;;;;;;5096331;28;19917;-63
2021/12/02 08:33:24;;;;;;;;;;;;;;;;;;5114732;28;19922;-63
2021/12/02 08:35:50;;;;;;;;;;;;;;;;;;5114576;28;19912;-71
2021/12/02 08:38:18;;;;;;;;;;;;;;;;;;5114789;28;19904;-71
2021/12/02 08:40:46;;;;;;;;;;;;;;;;;;5114593;28;19954;-67
2021/12/02 08:43:12;;;;;;;;;;;;;;;;;;5114565;28;20359;-69
2021/12/02 08:45:38;;;;;;;;;;;;;;;;;;5114372;28;19911;-67
2021/12/02 08:48:04;;;;;;;;;;;;;;;;;;5114412;28;19904;-65
2021/12/02 08:50:30;;;;;;;;;;;;;;;;;;5113868;28;19903;-69
2021/12/02 08:52:56;;;;;;;;;;;;;;;;;;5095611;28;19960;-70
2021/12/02 08:55:22;;;;;;;;;;;;;;;;;;5113680;28;19912;-68
2021/12/02 08:57:48;;;;;;;;;;;;;;;;;;5113701;28;19904;-72
2021/12/02 09:00:14;;;;;;;;;;;;;;;;;;5113731;28;20374;-68
2021/12/02 09:02:40;;;;;;;;;;;;;;;;;;5113768;28;20431;-64
2021/12/02 09:05:06;;;;;;;;;;;;;;;;;;5113431;28;19908;-66
2021/12/02 09:07:32;;;;;;;;;;;;;;;;;;5111346;28;20313;-67
2021/12/02 09:09:58;;;;;;;;;;;;;;;;;;5106493;28;20335;-73
2021/12/02 09:12:24;;;;;;;;;;;;;;;;;;5113056;28;19949;-71
2021/12/02 09:14:50;;;;;;;;;;;;;;;;;;5113680;28;19947;-63
2021/12/02 09:17:16;;;;;;;;;;;;;;;;;;5112863;28;20419;-70
2021/12/02 09:19:41;;;;;;;;;;;;;;;;;;5113778;28;19946;-65
2021/12/02 09:22:07;;;;;;;;;;;;;;;;;;5095455;28;19947;-70
2021/12/02 09:24:33;;;;;;;;;;;;;;;;;;5095047;28;19947;-65
2021/12/02 09:26:59;;;;;;;;;;;;;;;;;;5112746;28;20331;-75
2021/12/02 09:29:25;;;;;;;;;;;;;;;;;;5113340;28;20401;-80
2021/12/02 09:31:51;;;;;;;;;;;;;;;;;;5111746;28;20028;-62
2021/12/02 09:34:17;;;;;;;;;;;;;;;;;;5111898;28;19954;-78
2021/12/02 09:36:43;;;;;;;;;;;;;;;;;;5093737;28;19908;-70
2021/12/02 09:39:09;;;;;;;;;;;;;;;;;;5112627;28;19910;-79
2021/12/02 09:41:35;;;;;;;;;;;;;;;;;;5112389;28;20307;-68
2021/12/02 09:44:01;;;;;;;;;;;;;;;;;;5112678;28;19904;-68
2021/12/02 09:46:27;;;;;;;;;;;;;;;;;;5112216;28;20350;-64
2021/12/02 09:48:53;;;;;;;;;;;;;;;;;;5093480;28;19956;-63
2021/12/02 09:51:23;;;;;;;;;;;;;;;;;;5093392;28;19939;-68
2021/12/02 09:56:29;;;;;;;;;;;;;;;;;;5104584;28;19911;-75
2021/12/02 09:58:58;;;;;;;;;;;;;;;;;;5091219;28;19954;-72
2021/12/02 10:01:31;;;;;;;;;;;;;;;;;;5111401;28;19911;-81
2021/12/02 10:04:02;;;;;;;;;;;;;;;;;;5111432;28;19908;-80
2021/12/02 10:06:30;;;;;;;;;;;;;;;;;;5111888;28;20247;-79
2021/12/02 10:09:11;;;;;;;;;;;;;;;;;;5112117;28;19972;-73
2021/12/02 10:11:41;;;;;;;;;;;;;;;;;;5093561;28;19994;-75
2021/12/02 10:14:07;;;;;;;;;;;;;;;;;;5111183;28;19911;-66
2021/12/02 10:16:35;;;;;;;;;;;;;;;;;;5111300;28;19904;-65
2021/12/02 10:19:13;;;;;;;;;;;;;;;;;;5111590;28;19904;-77
2021/12/02 10:21:45;;;;;;;;;;;;;;;;;;5111553;28;20378;-68
2021/12/02 10:24:11;;;;;;;;;;;;;;;;;;5110113;28;19910;-71
2021/12/02 10:26:37;;;;;;;;;;;;;;;;;;5111488;28;19903;-74
2021/12/02 10:29:03;;;;;;;;;;;;;;;;;;5111353;28;19904;-66
2021/12/02 10:31:29;;;;;;;;;;;;;;;;;;5111375;28;19910;-69
2021/12/02 10:33:56;;;;;;;;;;;;;;;;;;5111281;28;19919;-69
2021/12/02 10:36:22;;;;;;;;;;;;;;;;;;5111645;28;19907;-74
2021/12/02 10:38:48;;;;;;;;;;;;;;;;;;5111845;28;19948;-68
2021/12/02 10:41:16;;;;;;;;;;;;;;;;;;5111676;28;19903;-63
2021/12/02 10:43:42;;;;;;;;;;;;;;;;;;5112196;28;19903;-63
2021/12/02 10:46:08;;;;;;;;;;;;;;;;;;5067514;28;1236705;-78
2021/12/02 10:48:34;;;;;;;;;;;;;;;;;;5093381;28;20350;-64
2021/12/02 10:51:00;;;;;;;;;;;;;;;;;;5108268;28;19904;-78
2021/12/02 10:53:25;;;;;;;;;;;;;;;;;;5089910;28;20013;-73
2021/12/02 10:55:51;;;;;;;;;;;;;;;;;;5090863;28;20006;-68
2021/12/02 10:58:17;;;;;;;;;;;;;;;;;;5091037;28;20004;-72
2021/12/02 11:00:46;;;;;;;;;;;;;;;;;;5091279;28;20438;-77
2021/12/02 11:03:13;;;;;;;;;;;;;;;;;;5073079;28;19904;-76
2021/12/02 11:05:39;;;;;;;;;;;;;;;;;;5091444;28;20276;-67
2021/12/02 11:08:05;;;;;;;;;;;;;;;;;;5073389;28;19965;-74
2021/12/02 11:10:31;;;;;;;;;;;;;;;;;;5091679;28;19904;-65
2021/12/02 11:12:57;;;;;;;;;;;;;;;;;;5091434;28;19957;-70
2021/12/02 11:15:23;;;;;;;;;;;;;;;;;;5091252;28;19912;-68
2021/12/02 11:17:49;;;;;;;;;;;;;;;;;;5091291;28;19995;-70
2021/12/02 11:20:15;;;;;;;;;;;;;;;;;;5073181;28;19995;-69
2021/12/02 11:22:41;;;;;;;;;;;;;;;;;;5073100;28;19904;-65
2021/12/02 11:25:07;;;;;;;;;;;;;;;;;;5091409;28;19957;-73
2021/12/02 11:27:33;;;;;;;;;;;;;;;;;;5111328;28;19907;-75
2021/12/02 11:29:59;;;;;;;;;;;;;;;;;;5111683;28;20546;-72
2021/12/02 11:32:25;;;;;;;;;;;;;;;;;;5111548;28;20418;-73
2021/12/02 11:34:51;;;;;;;;;;;;;;;;;;5111968;28;19912;-72
2021/12/02 11:37:17;;;;;;;;;;;;;;;;;;5115476;28;20384;-79
2021/12/02 11:39:43;;;;;;;;;;;;;;;;;;5115239;28;19900;-67
2021/12/02 11:42:09;;;;;;;;;;;;;;;;;;5115252;28;19904;-73
2021/12/02 11:44:35;;;;;;;;;;;;;;;;;;5115084;28;19910;-76
2021/12/02 11:47:00;;;;;;;;;;;;;;;;;;5115162;28;19973;-64
2021/12/02 11:49:26;;;;;;;;;;;;;;;;;;5114489;28;19926;-68
2021/12/02 11:51:52;;;;;;;;;;;;;;;;;;5113195;28;20378;-79
2021/12/02 11:54:18;;;;;;;;;;;;;;;;;;5113260;28;19916;-77
2021/12/02 11:56:44;;;;;;;;;;;;;;;;;;5105521;28;19916;-67
2021/12/02 11:59:10;;;;;;;;;;;;;;;;;;5094211;28;19904;-74
2021/12/02 12:01:36;;;;;;;;;;;;;;;;;;5094274;28;19908;-63
2021/12/02 12:04:02;;;;;;;;;;;;;;;;;;5076258;28;19904;-77
2021/12/02 12:06:28;;;;;;;;;;;;;;;;;;5094505;28;20359;-76
2021/12/02 12:08:55;;;;;;;;;;;;;;;;;;5094289;28;20347;-84
2021/12/02 12:11:22;;;;;;;;;;;;;;;;;;5094639;28;19999;-84
2021/12/02 12:13:48;;;;;;;;;;;;;;;;;;5094114;28;19900;-80
2021/12/02 12:16:14;;;;;;;;;;;;;;;;;;5093836;28;20006;-71
2021/12/02 12:18:40;;;;;;;;;;;;;;;;;;5075917;28;19904;-85
2021/12/02 12:21:06;;;;;;;;;;;;;;;;;;5093992;28;19908;-64
2021/12/02 12:23:31;;;;;;;;;;;;;;;;;;5075651;28;19926;-62
2021/12/02 12:25:57;;;;;;;;;;;;;;;;;;5094009;28;20668;-79
2021/12/02 12:28:24;;;;;;;;;;;;;;;;;;5093759;28;20343;-64
2021/12/02 12:30:51;;;;;;;;;;;;;;;;;;5093499;28;20006;-69
2021/12/02 12:33:19;;;;;;;;;;;;;;;;;;5093693;28;19949;-64
2021/12/02 12:38:17;;;;;;;;;;;;;;;;;;5094031;28;19904;-64
2021/12/02 12:40:44;;;;;;;;;;;;;;;;;;5093585;28;20005;-74
2021/12/02 12:43:09;;;;;;;;;;;;;;;;;;5075496;28;19918;-68
2021/12/02 12:45:38;;;;;;;;;;;;;;;;;;5093372;28;20385;-73
2021/12/02 12:48:04;;;;;;;;;;;;;;;;;;5092521;28;19908;-64
2021/12/02 12:50:30;;;;;;;;;;;;;;;;;;5093571;28;19930;-64
2021/12/02 12:52:56;;;;;;;;;;;;;;;;;;5093198;28;19903;-65
2021/12/02 12:55:22;;;;;;;;;;;;;;;;;;5095578;28;19912;-64
2021/12/02 12:57:48;;;;;;;;;;;;;;;;;;5113880;28;19915;-64
2021/12/02 13:00:14;;;;;;;;;;;;;;;;;;5113736;28;19907;-76
2021/12/02 13:02:40;;;;;;;;;;;;;;;;;;5113741;28;19903;-70
2021/12/02 13:05:06;;;;;;;;;;;;;;;;;;5113521;28;19906;-64
2021/12/02 13:07:32;;;;;;;;;;;;;;;;;;5111869;28;19912;-69
2021/12/02 13:09:59;;;;;;;;;;;;;;;;;;5105246;28;20424;-86
2021/12/02 13:12:25;;;;;;;;;;;;;;;;;;5110556;28;20300;-81
2021/12/02 13:14:52;;;;;;;;;;;;;;;;;;5094882;28;19919;-87
2021/12/02 13:17:18;;;;;;;;;;;;;;;;;;5112465;28;19990;-72
2021/12/02 13:19:44;;;;;;;;;;;;;;;;;;5112967;28;19969;-68
2021/12/02 13:22:09;;;;;;;;;;;;;;;;;;5113282;28;19942;-83
2021/12/02 13:24:36;;;;;;;;;;;;;;;;;;5114776;28;19915;-77
2021/12/02 13:27:02;;;;;;;;;;;;;;;;;;5111827;28;20082;-74
2021/12/02 13:29:28;;;;;;;;;;;;;;;;;;5104290;28;20003;-82
2021/12/02 13:31:54;;;;;;;;;;;;;;;;;;5112469;28;19916;-78
2021/12/02 13:34:20;;;;;;;;;;;;;;;;;;5111239;28;19923;-74
2021/12/02 13:36:46;;;;;;;;;;;;;;;;;;5112205;28;19904;-85
2021/12/02 13:39:12;;;;;;;;;;;;;;;;;;5113257;28;19908;-75
2021/12/02 13:41:38;;;;;;;;;;;;;;;;;;5094940;28;19904;-79
2021/12/02 13:44:04;;;;;;;;;;;;;;;;;;5112361;28;19915;-83
2021/12/02 13:46:30;;;;;;;;;;;;;;;;;;5098383;28;20434;-85
2021/12/02 13:48:58;;;;;;;;;;;;;;;;;;5105662;28;19948;-82
2021/12/02 13:54:09;;;;;;;;;;;;;;;;;;5113938;28;20385;-75
2021/12/02 13:56:35;;;;;;;;;;;;;;;;;;5114104;28;19903;-77
2021/12/02 13:59:01;;;;;;;;;;;;;;;;;;5113895;28;19910;-71
2021/12/02 14:01:27;;;;;;;;;;;;;;;;;;5113742;28;20014;-72
2021/12/02 14:03:53;;;;;;;;;;;;;;;;;;5113219;28;19943;-75
2021/12/02 14:06:19;;;;;;;;;;;;;;;;;;5113476;28;19942;-67
2021/12/02 14:08:45;;;;;;;;;;;;;;;;;;5113105;28;20366;-74
2021/12/02 14:11:11;;;;;;;;;;;;;;;;;;5094926;28;19950;-84
2021/12/02 14:13:36;;;;;;;;;;;;;;;;;;5094748;28;19970;-81
2021/12/02 14:16:04;;;;;;;;;;;;;;;;;;5113809;28;19922;-74
2021/12/02 14:18:30;;;;;;;;;;;;;;;;;;5113991;28;19903;-79
2021/12/02 14:20:56;;;;;;;;;;;;;;;;;;5113841;28;19906;-75
2021/12/02 14:23:22;;;;;;;;;;;;;;;;;;5113633;28;19904;-79
2021/12/02 14:25:48;;;;;;;;;;;;;;;;;;5108330;28;19908;-80
2021/12/02 14:28:14;;;;;;;;;;;;;;;;;;5113266;28;19994;-80
2021/12/02 14:30:40;;;;;;;;;;;;;;;;;;5113634;28;20045;-81
2021/12/02 14:33:06;;;;;;;;;;;;;;;;;;5113951;28;19919;-83
2021/12/02 14:35:31;;;;;;;;;;;;;;;;;;5114253;28;19916;-78
2021/12/02 14:37:57;;;;;;;;;;;;;;;;;;5114456;28;19939;-83
2021/12/02 14:40:23;;;;;;;;;;;;;;;;;;5091705;28;19988;-80
2021/12/02 14:42:49;;;;;;;;;;;;;;;;;;5111073;28;19930;-82
2021/12/02 14:45:15;;;;;;;;;;;;;;;;;;5113906;28;19904;-80
2021/12/02 14:47:41;;;;;;;;;;;;;;;;;;5113354;28;19916;-79
2021/12/02 14:50:07;;;;;;;;;;;;;;;;;;5095472;28;20260;-80
2021/12/02 14:52:35;;;;;;;;;;;;;;;;;;5112974;28;19904;-83
2021/12/02 14:55:01;;;;;;;;;;;;;;;;;;5113308;28;19912;-77
2021/12/02 14:57:28;;;;;;;;;;;;;;;;;;5116073;28;19915;-72
2021/12/02 14:59:54;;;;;;;;;;;;;;;;;;5115768;28;19978;-70
2021/12/02 15:02:20;;;;;;;;;;;;;;;;;;5114703;28;19996;-78
2021/12/02 15:04:49;;;;;;;;;;;;;;;;;;5080460;28;19908;-78
2021/12/02 15:07:15;;;;;;;;;;;;;;;;;;5093807;28;19998;-75
2021/12/02 15:09:41;;;;;;;;;;;;;;;;;;5112020;28;19939;-75
2021/12/02 15:12:07;;;;;;;;;;;;;;;;;;5115896;28;19994;-83
2021/12/02 15:14:33;;;;;;;;;;;;;;;;;;5115018;28;20007;-76
2021/12/02 15:16:59;;;;;;;;;;;;;;;;;;5114656;28;19903;-76
2021/12/02 15:19:25;;;;;;;;;;;;;;;;;;5113228;28;19957;-62
2021/12/02 15:21:50;;;;;;;;;;;;;;;;;;5114105;28;19903;-77
2021/12/02 15:24:16;;;;;;;;;;;;;;;;;;5114688;28;19982;-67
2021/12/02 15:26:42;;;;;;;;;;;;;;;;;;5115260;28;19938;-78
2021/12/02 15:29:08;;;;;;;;;;;;;;;;;;5114977;28;19908;-81
2021/12/02 15:31:37;;;;;;;;;;;;;;;;;;5109385;28;19930;-84
2021/12/02 15:34:03;;;;;;;;;;;;;;;;;;5104624;28;19900;-73
2021/12/02 15:36:31;;;;;;;;;;;;;;;;;;5114603;28;19903;-64
2021/12/02 15:38:57;;;;;;;;;;;;;;;;;;5114616;28;19998;-69
2021/12/02 15:41:23;;;;;;;;;;;;;;;;;;5095983;28;20134;-74
2021/12/02 15:43:51;;;;;;;;;;;;;;;;;;5114138;28;19949;-80
2021/12/02 15:46:17;;;;;;;;;;;;;;;;;;5095800;28;19950;-67
2021/12/02 15:48:45;;;;;;;;;;;;;;;;;;5107380;28;19904;-77
2021/12/02 15:51:11;;;;;;;;;;;;;;;;;;5090341;28;19994;-76
2021/12/02 15:53:37;;;;;;;;;;;;;;;;;;5102147;28;20373;-73
2021/12/02 15:56:03;;;;;;;;;;;;;;;;;;5113793;28;20008;-75
2021/12/02 15:58:29;;;;;;;;;;;;;;;;;;5114312;28;19907;-75
2021/12/02 16:00:58;;;;;;;;;;;;;;;;;;5114170;28;19899;-67
2021/12/02 16:03:32;;;;;;;;;;;;;;;;;;5113614;28;19904;-80
2021/12/02 16:13:40;;;;;;;;;;;;;;;;;;5114114;28;20351;-76
2021/12/02 16:16:06;;;;;;;;;;;;;;;;;;5113519;28;19911;-70
2021/12/02 16:18:32;;;;;;;;;;;;;;;;;;5113346;28;19903;-69
2021/12/02 16:20:59;;;;;;;;;;;;;;;;;;5111673;28;19921;-68
2021/12/02 16:23:25;;;;;;;;;;;;;;;;;;5088601;28;19911;-65
2021/12/02 16:25:51;;;;;;;;;;;;;;;;;;5113544;28;19904;-75
2021/12/02 16:28:16;;;;;;;;;;;;;;;;;;5113725;28;20256;-77
2021/12/02 16:30:44;;;;;;;;;;;;;;;;;;5113603;28;19913;-78
2021/12/02 16:33:10;;;;;;;;;;;;;;;;;;5094744;28;19910;-77
2021/12/02 16:35:36;;;;;;;;;;;;;;;;;;5111998;27;19917;-66
2021/12/02 16:38:02;;;;;;;;;;;;;;;;;;5094482;28;20366;-73
2021/12/02 16:40:29;;;;;;;;;;;;;;;;;;5100476;28;19930;-75
2021/12/02 16:42:55;;;;;;;;;;;;;;;;;;5092823;28;19957;-67
2021/12/02 16:45:21;;;;;;;;;;;;;;;;;;5113277;28;19942;-68
2021/12/02 16:47:47;;;;;;;;;;;;;;;;;;5112822;28;19961;-76
2021/12/02 16:50:13;;;;;;;;;;;;;;;;;;5113023;28;19908;-78
2021/12/02 16:52:39;;;;;;;;;;;;;;;;;;5097356;28;19908;-74
2021/12/02 16:55:05;;;;;;;;;;;;;;;;;;5112221;28;19929;-73
2021/12/02 16:57:31;;;;;;;;;;;;;;;;;;5106217;28;19904;-79
2021/12/02 16:59:57;;;;;;;;;;;;;;;;;;5112969;28;19904;-76
2021/12/02 17:02:24;;;;;;;;;;;;;;;;;;5112615;28;19908;-73
2021/12/02 17:04:50;;;;;;;;;;;;;;;;;;5094607;28;19903;-72
2021/12/02 17:07:16;;;;;;;;;;;;;;;;;;5112328;28;20392;-63
2021/12/02 17:09:42;;;;;;;;;;;;;;;;;;5112674;28;19908;-66
2021/12/02 17:12:08;;;;;;;;;;;;;;;;;;5112459;28;19957;-69
2021/12/02 17:14:34;;;;;;;;;;;;;;;;;;5098540;28;19918;-74
2021/12/02 17:17:00;;;;;;;;;;;;;;;;;;5110888;28;20110;-67
2021/12/02 17:19:26;;;;;;;;;;;;;;;;;;5113614;28;20480;-70